Time;durP1;ratioP1;P1;durP2;ratioP2;P2;SDS_P1;SDS_P2;PMS_P1;PMS_P2;Temp;Humidity;BMP_temperature;BMP_pressure;BME280_temperature;BME280_humidity;BME280_pressure;Samples;Min_cycle;Max_cycle;Signal;HPM_P1;HPM_P2
2023/09/23 00:00:49;;;;;;;;;5.00;3.00;;;;;24.70;46.02;100098.77;110259;1258;19362;-37
2023/09/23 00:03:34;;;;;;;;;2.00;2.00;;;;;24.69;45.85;100088.92;110135;1247;21112;-37
2023/09/23 00:06:00;;;;;;;;;2.00;2.00;;;;;24.67;46.07;100099.26;110243;1263;18379;-38
2023/09/23 00:08:26;;;;;;;;;3.00;2.00;;;;;24.67;46.43;100111.86;110224;1250;20590;-38
2023/09/23 00:10:53;;;;;;;;;2.00;2.00;;;;;24.69;46.25;100110.07;110221;1250;19376;-38
2023/09/23 00:13:20;;;;;;;;;3.00;2.00;;;;;24.71;46.37;100100.31;110245;1250;22075;-38
2023/09/23 00:15:47;;;;;;;;;3.00;3.00;;;;;24.71;46.48;100099.99;110195;1248;20915;-38
2023/09/23 00:18:17;;;;;;;;;2.00;2.00;;;;;24.67;46.72;100105.51;110223;1249;19533;-39
2023/09/23 00:20:43;;;;;;;;;2.00;2.00;;;;;24.68;46.98;100112.31;110210;1247;21974;-39
2023/09/23 00:23:09;;;;;;;;;2.00;2.00;;;;;24.70;46.76;100114.32;110168;1263;20635;-39
2023/09/23 00:25:35;;;;;;;;;3.67;3.00;;;;;24.67;46.95;100112.41;110175;1247;19756;-39
2023/09/23 00:28:02;;;;;;;;;5.00;5.00;;;;;24.67;47.11;100106.92;110286;1263;21089;-39
2023/09/23 00:30:28;;;;;;;;;5.50;5.00;;;;;24.67;47.37;100098.06;110217;1264;20823;-39
2023/09/23 00:32:54;;;;;;;;;6.00;5.00;;;;;24.66;47.43;100095.02;110213;1263;18211;-39
2023/09/23 00:35:20;;;;;;;;;6.00;4.00;;;;;24.65;47.37;100102.27;110220;1248;21047;-38
2023/09/23 00:37:48;;;;;;;;;5.00;3.00;;;;;24.66;47.71;100112.94;110189;1249;20594;-39
2023/09/23 00:40:17;;;;;;;;;5.00;5.00;;;;;24.66;47.69;100121.58;110209;1248;22329;-39
2023/09/23 00:42:43;;;;;;;;;5.67;5.33;;;;;24.68;47.51;100131.52;110205;1263;21721;-39
2023/09/23 00:45:14;;;;;;;;;5.00;5.00;;;;;24.68;47.75;100139.98;110184;1250;21846;-39
2023/09/23 00:47:40;;;;;;;;;5.00;5.00;;;;;24.69;47.61;100137.52;110224;1247;20321;-39
2023/09/23 00:50:17;;;;;;;;;7.00;7.00;;;;;24.68;47.85;100129.03;110229;1256;18312;-39
2023/09/23 00:52:43;;;;;;;;;6.00;6.00;;;;;24.68;47.91;100124.71;110206;1263;22907;-39
2023/09/23 00:55:09;;;;;;;;;5.00;5.00;;;;;24.64;48.12;100127.17;110206;1247;20561;-38
2023/09/23 00:57:35;;;;;;;;;5.00;5.00;;;;;24.65;48.14;100133.55;110231;1256;21050;-39
2023/09/23 01:00:02;;;;;;;;;4.00;4.00;;;;;24.68;48.12;100139.89;110205;1263;19135;-38
2023/09/23 01:02:28;;;;;;;;;4.00;3.00;;;;;24.66;47.99;100138.11;110204;1263;19530;-38
2023/09/23 01:04:55;;;;;;;;;3.00;3.00;;;;;24.64;48.20;100129.97;110212;1250;22356;-38
2023/09/23 01:07:21;;;;;;;;;3.00;3.00;;;;;24.65;48.18;100119.19;110219;1263;20976;-38
2023/09/23 01:09:48;;;;;;;;;3.00;3.00;;;;;24.66;48.38;100111.84;110241;1250;19393;-38
2023/09/23 01:12:14;;;;;;;;;5.00;5.00;;;;;24.64;48.16;100107.94;110234;1247;22546;-38
2023/09/23 01:14:40;;;;;;;;;5.00;3.00;;;;;24.63;48.35;100108.79;110191;1247;20811;-38
2023/09/23 01:17:10;;;;;;;;;5.00;4.00;;;;;24.65;48.45;100119.41;110283;1250;22245;-38
2023/09/23 01:19:35;;;;;;;;;3.67;3.67;;;;;24.65;48.31;100130.53;110212;1247;21571;-38
2023/09/23 01:22:01;;;;;;;;;4.00;3.00;;;;;24.64;48.41;100130.01;110193;1264;21522;-37
2023/09/23 01:24:30;;;;;;;;;3.00;3.00;;;;;24.64;48.35;100127.33;110203;1247;18227;-39
2023/09/23 01:26:56;;;;;;;;;3.00;3.00;;;;;24.65;48.28;100120.73;110197;1247;22277;-37
2023/09/23 01:29:22;;;;;;;;;3.00;3.00;;;;;24.65;48.44;100117.67;110132;1264;19428;-38
2023/09/23 01:31:48;;;;;;;;;2.00;2.00;;;;;24.66;48.25;100117.75;110167;1250;19641;-38
2023/09/23 01:34:14;;;;;;;;;3.00;3.00;;;;;24.65;48.29;100119.25;110224;1263;18504;-38
2023/09/23 01:36:40;;;;;;;;;3.00;3.00;;;;;24.65;48.43;100123.53;110178;1250;22039;-38
2023/09/23 01:39:07;;;;;;;;;3.00;3.00;;;;;24.62;48.52;100123.77;110191;1248;19960;-38
2023/09/23 01:41:33;;;;;;;;;2.50;2.00;;;;;24.62;48.54;100132.31;110237;1263;21802;-38
2023/09/23 01:44:00;;;;;;;;;2.00;2.00;;;;;24.62;48.61;100131.54;110194;1249;22948;-38
2023/09/23 01:46:26;;;;;;;;;2.00;2.00;;;;;24.64;48.55;100135.32;110174;1263;22120;-37
2023/09/23 01:48:52;;;;;;;;;3.00;3.00;;;;;24.64;48.66;100130.69;110129;1250;19831;-37
2023/09/23 01:51:18;;;;;;;;;3.00;3.00;;;;;24.63;48.48;100126.59;110178;1263;19085;-38
2023/09/23 01:53:44;;;;;;;;;2.00;2.00;;;;;24.62;48.68;100127.27;110130;1257;18505;-38
2023/09/23 01:56:10;;;;;;;;;3.00;3.00;;;;;24.59;48.72;100128.55;110158;1263;19544;-38
2023/09/23 01:58:36;;;;;;;;;3.00;3.00;;;;;24.61;48.53;100131.69;110125;1250;20644;-39
2023/09/23 02:01:04;;;;;;;;;2.50;2.00;;;;;24.62;48.68;100137.02;110162;1264;18251;-38
2023/09/23 02:03:30;;;;;;;;;3.00;3.00;;;;;24.63;48.80;100141.65;110182;1263;18812;-37
2023/09/23 02:05:56;;;;;;;;;3.00;3.00;;;;;24.62;48.85;100139.98;110185;1250;19235;-38
2023/09/23 02:08:22;;;;;;;;;2.00;2.00;;;;;24.62;48.68;100134.56;110194;1250;22840;-38
2023/09/23 02:10:48;;;;;;;;;2.00;2.00;;;;;24.62;48.72;100136.23;110213;1251;20675;-38
2023/09/23 02:13:14;;;;;;;;;3.00;3.00;;;;;24.63;48.77;100136.34;110216;1263;19422;-38
2023/09/23 02:15:40;;;;;;;;;2.00;2.00;;;;;24.64;48.70;100137.58;110222;1263;18155;-38
2023/09/23 02:18:06;;;;;;;;;5.00;3.00;;;;;24.61;48.88;100134.84;110220;1263;22751;-39
2023/09/23 02:20:33;;;;;;;;;2.00;2.00;;;;;24.61;48.65;100129.76;110199;1250;21754;-37
2023/09/23 02:22:59;;;;;;;;;3.00;3.00;;;;;24.62;48.87;100136.95;110213;1257;22592;-37
2023/09/23 02:25:25;;;;;;;;;3.00;3.00;;;;;24.63;48.56;100139.85;110219;1247;22693;-37
2023/09/23 02:27:51;;;;;;;;;3.00;2.00;;;;;24.62;48.68;100153.58;110208;1263;22699;-37
2023/09/23 02:33:20;;;;;;;;;6.00;6.00;;;;;24.60;48.91;100156.08;110173;1263;23013;-38
2023/09/23 02:35:46;;;;;;;;;3.00;3.00;;;;;24.60;48.85;100165.44;110212;1250;20757;-37
2023/09/23 02:38:12;;;;;;;;;2.00;2.00;;;;;24.62;48.69;100171.20;110264;1264;22599;-38
2023/09/23 02:40:38;;;;;;;;;5.00;3.00;;;;;24.62;48.71;100177.45;110212;1257;20385;-38
2023/09/23 02:43:04;;;;;;;;;5.00;5.00;;;;;24.61;48.71;100175.44;110267;1258;20685;-38
2023/09/23 02:45:31;;;;;;;;;4.00;4.00;;;;;24.60;48.86;100170.31;110202;1263;18395;-37
2023/09/23 02:47:58;;;;;;;;;6.00;3.00;;;;;24.62;48.63;100159.44;110222;1251;21463;-38
2023/09/23 02:50:24;;;;;;;;;5.00;3.00;;;;;24.63;48.62;100147.30;110275;1248;20987;-38
2023/09/23 02:52:50;;;;;;;;;5.00;3.00;;;;;24.62;48.79;100139.71;110277;1250;19399;-38
2023/09/23 02:55:18;;;;;;;;;5.00;3.00;;;;;24.61;48.93;100137.33;110185;1264;18609;-38
2023/09/23 02:57:46;;;;;;;;;3.00;3.00;;;;;24.61;48.81;100135.19;110139;1264;19488;-38
2023/09/23 03:00:17;;;;;;;;;3.00;3.00;;;;;24.61;48.71;100138.64;110196;1264;22211;-38
2023/09/23 03:02:45;;;;;;;;;2.33;2.33;;;;;24.61;48.89;100147.45;110275;1264;20053;-38
2023/09/23 03:05:13;;;;;;;;;3.00;3.00;;;;;24.60;48.85;100146.70;110226;1250;20867;-38
2023/09/23 03:07:40;;;;;;;;;3.00;3.00;;;;;24.61;48.77;100139.74;110213;1264;18386;-38
2023/09/23 03:10:12;;;;;;;;;2.00;2.00;;;;;24.61;48.58;100134.04;110208;1250;20309;-38
2023/09/23 03:12:43;;;;;;;;;2.00;2.00;;;;;24.58;48.73;100135.14;110248;1250;20846;-38
2023/09/23 03:15:14;;;;;;;;;3.00;3.00;;;;;24.60;48.89;100127.65;110194;1247;22485;-38
2023/09/23 03:17:41;;;;;;;;;3.00;3.00;;;;;24.60;48.61;100130.94;110247;1247;21178;-38
2023/09/23 03:20:20;;;;;;;;;5.00;3.00;;;;;24.59;48.71;100142.53;110212;1264;19398;-38
2023/09/23 03:22:46;;;;;;;;;3.00;3.00;;;;;24.59;48.88;100149.68;110196;1264;18917;-38
2023/09/23 03:25:13;;;;;;;;;2.00;2.00;;;;;24.60;48.87;100159.10;110175;1248;20081;-38
2023/09/23 03:27:39;;;;;;;;;3.00;3.00;;;;;24.58;48.88;100161.37;110214;1248;22743;-38
2023/09/23 03:30:11;;;;;;;;;2.00;2.00;;;;;24.59;48.72;100165.56;110200;1263;18603;-39
2023/09/23 03:32:37;;;;;;;;;3.00;3.00;;;;;24.59;48.84;100158.18;110222;1264;22272;-38
2023/09/23 03:35:04;;;;;;;;;2.00;2.00;;;;;24.58;48.82;100140.72;110171;1264;21552;-39
2023/09/23 03:37:30;;;;;;;;;2.00;2.00;;;;;24.61;48.62;100144.52;110156;1250;21867;-39
2023/09/23 03:39:56;;;;;;;;;5.00;3.00;;;;;24.59;48.61;100143.79;110244;1250;19973;-37
2023/09/23 03:42:22;;;;;;;;;4.00;4.00;;;;;24.58;48.83;100144.55;110282;1263;19184;-38
2023/09/23 03:44:47;;;;;;;;;2.00;2.00;;;;;24.57;48.88;100155.02;110219;1247;18186;-38
2023/09/23 03:47:13;;;;;;;;;3.00;3.00;;;;;24.56;48.79;100162.86;110242;1257;19954;-38
2023/09/23 03:49:39;;;;;;;;;5.00;3.00;;;;;24.58;48.91;100161.43;110235;1250;21771;-39
2023/09/23 03:52:05;;;;;;;;;5.00;3.00;;;;;24.58;48.68;100166.98;110222;1264;18361;-39
2023/09/23 03:54:33;;;;;;;;;5.00;3.00;;;;;24.59;48.91;100178.13;110199;1247;18756;-39
2023/09/23 03:56:59;;;;;;;;;5.00;5.00;;;;;24.57;48.91;100180.14;110191;1263;22905;-39
2023/09/23 03:59:25;;;;;;;;;3.00;3.00;;;;;24.54;48.78;100173.84;110215;1257;19404;-39
2023/09/23 04:01:51;;;;;;;;;5.00;3.00;;;;;24.57;48.70;100169.28;110215;1264;18686;-39
2023/09/23 04:04:17;;;;;;;;;3.00;3.00;;;;;24.55;48.97;100171.52;110217;1250;20423;-39
2023/09/23 04:06:43;;;;;;;;;2.00;2.00;;;;;24.54;48.96;100170.94;110230;1264;19936;-38
2023/09/23 04:09:12;;;;;;;;;3.00;3.00;;;;;24.57;48.91;100174.27;110207;1248;22066;-38
2023/09/23 04:11:38;;;;;;;;;3.00;3.00;;;;;24.55;48.94;100178.20;110230;1250;22338;-37
2023/09/23 04:14:04;;;;;;;;;3.00;3.00;;;;;24.53;48.94;100186.56;110344;1247;22331;-37
2023/09/23 04:16:30;;;;;;;;;2.00;2.00;;;;;24.52;49.02;100188.45;110376;1262;22829;-38
2023/09/23 04:18:56;;;;;;;;;4.00;3.00;;;;;24.54;48.88;100184.46;110197;1263;19354;-38
2023/09/23 04:21:24;;;;;;;;;3.00;3.00;;;;;24.53;49.08;100196.76;110198;1249;19432;-37
2023/09/23 04:23:52;;;;;;;;;5.00;5.00;;;;;24.55;48.84;100206.95;110175;1250;21471;-38
2023/09/23 04:26:21;;;;;;;;;5.00;5.00;;;;;24.55;49.01;100204.13;110187;1264;22216;-38
2023/09/23 04:28:47;;;;;;;;;4.00;4.00;;;;;24.57;48.68;100200.08;110216;1263;19804;-38
2023/09/23 04:31:13;;;;;;;;;3.00;3.00;;;;;24.54;48.83;100195.10;110188;1250;22162;-38
2023/09/23 04:33:39;;;;;;;;;5.00;5.00;;;;;24.53;48.84;100202.61;110235;1258;22989;-38
2023/09/23 04:36:09;;;;;;;;;5.00;5.00;;;;;24.54;48.91;100212.63;110226;1263;18340;-38
2023/09/23 04:38:35;;;;;;;;;3.00;3.00;;;;;24.52;48.87;100231.39;110230;1264;20142;-38
2023/09/23 04:41:01;;;;;;;;;3.00;3.00;;;;;24.53;48.84;100229.06;110231;1252;20462;-38
2023/09/23 04:43:30;;;;;;;;;5.00;3.00;;;;;24.54;48.84;100232.55;110220;1264;23327;-39
2023/09/23 04:45:56;;;;;;;;;3.00;3.00;;;;;24.54;48.88;100246.35;110232;1247;20208;-38
2023/09/23 04:48:24;;;;;;;;;3.00;3.00;;;;;24.54;48.91;100251.98;110234;1257;19652;-38
2023/09/23 04:50:52;;;;;;;;;3.00;3.00;;;;;24.53;48.80;100256.55;110178;1250;22198;-38
2023/09/23 04:53:18;;;;;;;;;6.00;6.00;;;;;24.54;48.60;100254.18;110195;1256;20107;-38
2023/09/23 04:55:45;;;;;;;;;7.00;6.00;;;;;24.54;48.45;100259.50;110145;1250;20967;-38
2023/09/23 04:58:12;;;;;;;;;9.00;7.67;;;;;24.47;48.87;100262.70;110193;1263;20226;-37
2023/09/23 05:00:38;;;;;;;;;6.50;6.50;;;;;24.45;48.82;100264.89;110203;1256;22363;-37
2023/09/23 05:03:05;;;;;;;;;7.00;7.00;;;;;24.39;48.77;100268.46;110217;1263;21741;-38
2023/09/23 05:05:31;;;;;;;;;7.00;7.00;;;;;24.38;48.61;100275.44;110205;1250;19766;-37
2023/09/23 05:07:59;;;;;;;;;11.00;10.00;;;;;24.35;48.75;100278.14;110247;1263;18674;-38
2023/09/23 05:10:26;;;;;;;;;13.00;11.00;;;;;24.33;48.76;100287.48;110193;1250;22066;-38
2023/09/23 05:12:54;;;;;;;;;12.00;10.50;;;;;24.31;48.83;100295.58;110155;1248;21311;-38
2023/09/23 05:15:20;;;;;;;;;10.00;9.00;;;;;24.30;48.72;100308.89;110184;1264;20100;-38
2023/09/23 05:17:46;;;;;;;;;13.50;10.00;;;;;24.28;48.86;100315.35;110187;1250;22187;-37
2023/09/23 05:20:25;;;;;;;;;8.00;7.00;;;;;24.21;48.80;100312.05;110206;1248;18339;-37
2023/09/23 05:22:51;;;;;;;;;9.00;9.00;;;;;24.13;48.88;100312.11;110155;1264;20151;-38
2023/09/23 05:25:17;;;;;;;;;7.00;7.00;;;;;24.07;49.25;100314.80;110197;1250;20781;-38
2023/09/23 05:27:43;;;;;;;;;10.00;9.00;;;;;24.02;49.12;100319.64;110203;1263;18782;-38
2023/09/23 05:30:10;;;;;;;;;9.00;7.00;;;;;24.03;49.22;100321.26;110275;1250;21719;-38
2023/09/23 05:32:37;;;;;;;;;9.67;9.00;;;;;24.01;49.03;100322.35;110157;1247;21907;-38
2023/09/23 05:35:03;;;;;;;;;8.50;8.50;;;;;23.95;49.27;100324.48;110200;1256;23275;-39
2023/09/23 05:37:29;;;;;;;;;8.50;8.50;;;;;23.90;49.57;100325.08;110198;1250;19994;-39
2023/09/23 05:39:54;;;;;;;;;12.00;10.00;;;;;23.86;49.69;100324.64;110229;1263;19101;-39
2023/09/23 05:42:23;;;;;;;;;9.00;9.00;;;;;23.85;49.90;100317.98;110230;1250;19452;-38
2023/09/23 05:44:49;;;;;;;;;13.00;12.00;;;;;23.93;49.72;100310.63;110205;1264;20000;-36
2023/09/23 05:47:15;;;;;;;;;8.00;8.00;;;;;23.89;49.98;100308.06;110232;1247;22415;-37
2023/09/23 05:49:42;;;;;;;;;10.00;10.00;;;;;23.91;49.90;100307.98;110217;1250;19830;-38
2023/09/23 05:52:08;;;;;;;;;12.00;10.00;;;;;23.95;49.96;100310.30;110205;1264;22313;-37
2023/09/23 05:54:34;;;;;;;;;8.00;6.00;;;;;24.03;49.92;100308.91;110249;1264;21762;-43
2023/09/23 05:57:00;;;;;;;;;8.00;6.00;;;;;24.13;49.99;100310.95;110227;1250;20792;-38
2023/09/23 05:59:26;;;;;;;;;9.00;6.00;;;;;24.24;49.61;100313.20;110228;1248;19758;-37
2023/09/23 06:01:52;;;;;;;;;9.00;9.00;;;;;24.25;49.91;100311.48;110222;1264;20191;-37
2023/09/23 06:04:18;;;;;;;;;7.00;7.00;;;;;24.31;49.75;100313.64;110144;1247;18402;-36
2023/09/23 06:06:44;;;;;;;;;6.00;6.00;;;;;24.29;49.85;100314.49;110054;1250;248053;-36
2023/09/23 06:09:10;;;;;;;;;9.00;9.00;;;;;24.24;49.96;100321.70;110215;1249;20665;-37
2023/09/23 06:11:37;;;;;;;;;6.00;6.00;;;;;24.22;49.98;100330.20;110228;1250;22239;-38
2023/09/23 06:14:03;;;;;;;;;5.50;5.50;;;;;24.27;49.70;100330.63;110217;1247;20065;-37
2023/09/23 06:16:29;;;;;;;;;7.00;6.00;;;;;24.22;49.68;100326.80;110226;1247;20889;-37
2023/09/23 06:18:55;;;;;;;;;10.00;10.00;;;;;24.18;49.66;100335.20;110277;1250;19413;-37
2023/09/23 06:21:21;;;;;;;;;8.50;8.50;;;;;24.13;50.13;100340.39;110190;1263;18549;-36
2023/09/23 06:23:47;;;;;;;;;7.00;7.00;;;;;24.15;49.96;100345.45;110206;1250;20488;-37
2023/09/23 06:26:13;;;;;;;;;6.00;6.00;;;;;24.21;49.91;100359.58;110185;1247;19403;-36
2023/09/23 06:28:39;;;;;;;;;6.00;6.00;;;;;24.24;49.86;100372.65;110159;1250;22848;-36
2023/09/23 06:31:05;;;;;;;;;10.00;10.00;;;;;24.25;49.94;100382.61;110221;1250;21557;-36
2023/09/23 06:33:31;;;;;;;;;9.00;7.50;;;;;24.28;49.95;100389.79;110218;1263;18541;-36
2023/09/23 06:35:56;;;;;;;;;10.00;9.00;;;;;24.29;50.16;100390.00;110257;1248;19775;-36
2023/09/23 06:38:22;;;;;;;;;6.00;6.00;;;;;24.25;50.20;100381.95;110260;1263;19274;-37
2023/09/23 06:40:48;;;;;;;;;9.50;9.50;;;;;24.22;50.02;100373.18;110297;1247;19796;-37
2023/09/23 06:43:14;;;;;;;;;15.00;13.00;;;;;23.99;50.59;100373.44;110204;1264;22992;-37
2023/09/23 06:45:40;;;;;;;;;16.00;13.00;;;;;24.02;50.43;100378.09;110231;1250;20682;-35
2023/09/23 06:48:06;;;;;;;;;10.00;9.00;;;;;23.98;50.62;100375.04;110193;1263;18409;-36
2023/09/23 06:50:32;;;;;;;;;10.50;9.50;;;;;23.79;51.39;100368.98;110237;1250;19836;-36
2023/09/23 06:52:58;;;;;;;;;13.00;10.00;;;;;23.84;51.59;100365.32;110192;1250;20504;-38
2023/09/23 06:55:24;;;;;;;;;10.00;10.00;;;;;23.95;52.50;100370.11;110174;1250;19798;-38
2023/09/23 06:57:50;;;;;;;;;9.50;9.50;;;;;23.87;52.70;100378.56;110077;1263;22578;-38
2023/09/23 07:00:16;;;;;;;;;11.00;11.00;;;;;23.82;52.22;100380.84;110200;1257;20482;-38
2023/09/23 07:02:42;;;;;;;;;10.00;9.00;;;;;23.88;51.89;100371.11;110242;1263;18302;-38
2023/09/23 07:05:09;;;;;;;;;9.00;9.00;;;;;23.93;51.95;100367.41;110215;1263;18586;-39
2023/09/23 07:07:35;;;;;;;;;13.00;12.00;;;;;23.91;51.69;100370.14;110175;1250;22149;-38
2023/09/23 07:10:01;;;;;;;;;12.00;12.00;;;;;23.97;51.96;100369.16;110159;1250;20621;-38
2023/09/23 07:12:27;;;;;;;;;12.50;12.50;;;;;23.94;52.00;100376.37;110217;1250;19946;-38
2023/09/23 07:14:53;;;;;;;;;13.00;13.00;;;;;23.95;51.62;100385.22;110254;1257;20629;-38
2023/09/23 07:17:20;;;;;;;;;13.00;12.00;;;;;23.92;52.03;100399.60;110189;1250;22194;-37
2023/09/23 07:19:46;;;;;;;;;13.00;12.00;;;;;23.95;52.07;100412.20;110206;1247;21449;-36
2023/09/23 07:22:12;;;;;;;;;10.00;10.00;;;;;23.96;51.82;100425.36;110231;1247;21912;-37
2023/09/23 07:24:38;;;;;;;;;16.00;14.00;;;;;23.94;51.70;100429.77;110232;1247;20917;-36
2023/09/23 07:27:04;;;;;;;;;19.00;16.00;;;;;24.00;51.48;100434.33;110243;1250;19843;-37
2023/09/23 07:29:30;;;;;;;;;15.50;14.50;;;;;24.07;51.21;100442.79;110222;1264;19081;-37
2023/09/23 07:31:56;;;;;;;;;15.00;13.00;;;;;24.08;50.96;100449.83;110097;1247;19080;-37
2023/09/23 07:34:22;;;;;;;;;13.00;12.00;;;;;24.10;51.02;100457.56;110220;1248;20180;-37
2023/09/23 07:36:48;;;;;;;;;14.00;13.00;;;;;24.23;50.60;100464.48;110208;1264;19155;-37
2023/09/23 07:39:14;;;;;;;;;15.00;13.00;;;;;24.28;50.55;100479.34;110206;1264;18713;-37
2023/09/23 07:41:40;;;;;;;;;;;;;;;24.15;50.91;100498.36;110158;1264;18468;-37
2023/09/23 07:44:06;;;;;;;;;10.00;10.00;;;;;24.12;50.46;100513.19;110260;1248;20381;-37
2023/09/23 07:46:32;;;;;;;;;12.50;12.50;;;;;24.09;50.16;100520.96;110215;1248;20097;-37
2023/09/23 07:48:58;;;;;;;;;10.00;10.00;;;;;24.09;50.25;100522.00;110291;1264;18868;-36
2023/09/23 07:51:24;;;;;;;;;10.00;10.00;;;;;24.07;50.23;100504.73;110212;1250;20699;-37
2023/09/23 07:53:50;;;;;;;;;9.00;9.00;;;;;24.10;50.06;100474.81;110272;1250;18375;-37
2023/09/23 07:56:16;;;;;;;;;12.00;12.00;;;;;24.21;49.89;100456.23;110275;1250;22777;-37
2023/09/23 07:58:42;;;;;;;;;10.00;9.50;;;;;24.22;50.12;100437.83;110340;1255;23514;-37
2023/09/23 08:01:08;;;;;;;;;11.00;10.00;;;;;24.22;50.31;100412.47;110372;1263;18970;-37
2023/09/23 08:03:34;;;;;;;;;26.00;23.00;;;;;24.16;50.34;100407.22;110383;1248;19985;-39
2023/09/23 08:06:00;;;;;;;;;17.00;16.00;;;;;24.09;50.58;100422.90;110418;1262;19100;-39
2023/09/23 08:08:26;;;;;;;;;91.50;67.50;;;;;24.13;50.60;100444.21;110447;1262;18343;-38
2023/09/23 08:10:53;;;;;;;;;133.50;101.50;;;;;24.23;50.38;100455.27;110430;1248;19786;-37
2023/09/23 08:13:20;;;;;;;;;101.00;71.00;;;;;24.18;50.45;100453.65;110428;1262;22103;-38
2023/09/23 08:15:46;;;;;;;;;75.50;58.50;;;;;24.22;49.99;100448.88;110449;1254;24025;-37
2023/09/23 08:18:12;;;;;;;;;54.33;43.67;;;;;24.21;50.23;100448.41;110383;1248;20231;-38
2023/09/23 08:20:39;;;;;;;;;32.00;28.00;;;;;24.11;50.46;100450.05;110356;1247;22146;-37
2023/09/23 08:23:05;;;;;;;;;19.00;18.00;;;;;24.14;50.28;100454.20;110414;1262;19972;-38
2023/09/23 08:25:31;;;;;;;;;14.00;13.33;;;;;24.16;50.34;100456.33;110392;1247;20209;-38
2023/09/23 08:27:58;;;;;;;;;15.50;13.00;;;;;24.19;49.94;100453.96;110374;1262;19238;-38
2023/09/23 08:30:24;;;;;;;;;13.00;10.00;;;;;24.22;50.07;100454.90;110371;1262;18622;-37
2023/09/23 08:32:51;;;;;;;;;10.00;10.00;;;;;24.28;50.10;100458.98;110370;1248;20169;-37
2023/09/23 08:35:17;;;;;;;;;14.00;11.00;;;;;24.17;50.06;100464.17;110384;1247;20543;-37
2023/09/23 08:37:45;;;;;;;;;11.00;10.00;;;;;24.09;50.01;100466.20;110378;1262;18505;-36
2023/09/23 08:40:11;;;;;;;;;8.00;8.00;;;;;24.09;50.13;100469.41;110338;1262;20222;-38
2023/09/23 08:42:38;;;;;;;;;9.00;9.00;;;;;24.09;49.65;100470.72;110382;1248;20483;-36
2023/09/23 08:45:04;;;;;;;;;10.00;10.00;;;;;23.85;49.90;100476.90;110151;1248;18450;-37
2023/09/23 08:47:30;;;;;;;;;10.00;9.00;;;;;23.78;49.89;100480.45;110202;1250;23378;-37
2023/09/23 08:49:55;;;;;;;;;10.00;9.00;;;;;23.80;49.82;100485.80;110188;1248;20534;-37
2023/09/23 08:52:21;;;;;;;;;12.00;10.00;;;;;23.91;49.42;100484.97;110223;1247;18397;-36
2023/09/23 08:54:48;;;;;;;;;12.50;12.50;;;;;23.97;49.42;100485.27;110136;1263;19977;-35
2023/09/23 08:57:14;;;;;;;;;13.00;12.00;;;;;24.07;50.17;100484.61;110284;1263;19200;-35
2023/09/23 08:59:40;;;;;;;;;10.00;9.00;;;;;24.03;50.53;100485.81;110204;1249;22210;-36
2023/09/23 09:02:06;;;;;;;;;8.00;6.00;;;;;23.93;49.35;100486.20;110214;1247;21125;-37
2023/09/23 09:04:32;;;;;;;;;8.00;6.00;;;;;24.04;48.34;100493.52;110204;1250;20635;-36
2023/09/23 09:06:58;;;;;;;;;9.50;8.50;;;;;24.00;48.63;100510.99;110213;1250;19795;-35
2023/09/23 09:09:25;;;;;;;;;8.00;8.00;;;;;23.97;48.42;100516.67;110209;1248;22500;-35
2023/09/23 09:11:51;;;;;;;;;10.00;10.00;;;;;23.98;48.67;100511.89;110209;1247;19456;-37
2023/09/23 09:14:17;;;;;;;;;8.00;8.00;;;;;23.93;48.67;100510.92;110208;1264;18869;-37
2023/09/23 09:16:43;;;;;;;;;6.00;6.00;;;;;23.93;48.61;100516.29;110188;1247;23209;-36
2023/09/23 09:19:09;;;;;;;;;6.00;6.00;;;;;23.94;48.66;100518.03;110225;1249;20491;-36
2023/09/23 09:21:35;;;;;;;;;8.00;8.00;;;;;23.83;48.60;100517.20;110253;1250;21678;-36
2023/09/23 09:24:00;;;;;;;;;9.00;8.00;;;;;23.92;48.50;100518.28;110260;1247;18309;-35
2023/09/23 09:26:26;;;;;;;;;8.00;8.00;;;;;23.82;48.74;100528.43;110198;1264;19113;-36
2023/09/23 09:28:53;;;;;;;;;9.00;9.00;;;;;23.89;48.24;100527.78;110221;1250;19440;-36
2023/09/23 09:31:19;;;;;;;;;14.00;13.00;;;;;23.85;48.99;100526.81;110212;1263;22629;-37
2023/09/23 09:33:47;;;;;;;;;14.00;12.00;;;;;23.76;49.72;100529.73;110197;1257;22184;-35
2023/09/23 09:36:14;;;;;;;;;9.00;9.00;;;;;23.96;49.36;100526.10;110179;1248;21331;-38
2023/09/23 09:38:40;;;;;;;;;33.00;29.00;;;;;24.12;49.24;100523.81;110203;1264;22687;-36
2023/09/23 09:41:06;;;;;;;;;48.00;37.00;;;;;24.13;48.51;100525.51;110249;1249;21633;-37
2023/09/23 09:43:33;;;;;;;;;49.00;44.00;;;;;23.90;48.42;100526.52;110209;1263;18375;-37
2023/09/23 09:45:59;;;;;;;;;30.00;27.50;;;;;23.84;48.77;100524.63;110201;1264;20138;-36
2023/09/23 09:48:26;;;;;;;;;18.50;16.00;;;;;23.85;48.87;100522.76;110197;1264;22233;-36
2023/09/23 09:50:52;;;;;;;;;17.00;14.00;;;;;23.87;48.23;100518.73;110202;1247;23412;-37
2023/09/23 09:53:18;;;;;;;;;12.00;12.00;;;;;23.79;48.22;100515.07;110166;1263;22919;-36
2023/09/23 09:55:44;;;;;;;;;14.00;13.00;;;;;23.82;48.42;100519.77;110127;1264;19349;-36
2023/09/23 09:58:11;;;;;;;;;12.33;12.00;;;;;23.87;48.31;100521.47;110274;1248;21402;-38
2023/09/23 10:00:39;;;;;;;;;8.00;8.00;;;;;23.97;48.53;100527.23;110232;1250;21909;-37
2023/09/23 10:03:05;;;;;;;;;8.33;8.00;;;;;24.06;47.92;100529.27;110212;1263;19392;-37
2023/09/23 10:05:31;;;;;;;;;12.00;9.00;;;;;24.10;47.65;100529.31;110235;1263;18484;-37
2023/09/23 10:07:57;;;;;;;;;10.00;9.00;;;;;24.14;47.21;100537.19;110220;1263;18506;-37
2023/09/23 10:10:23;;;;;;;;;10.00;10.00;;;;;24.16;47.17;100538.46;110286;1264;19001;-37
2023/09/23 10:12:49;;;;;;;;;10.00;9.00;;;;;24.18;47.34;100540.25;110288;1248;19768;-37
2023/09/23 10:15:15;;;;;;;;;13.00;9.00;;;;;24.17;47.30;100544.76;110281;1264;18653;-37
2023/09/23 10:17:43;;;;;;;;;9.00;9.00;;;;;24.15;47.39;100543.80;110269;1263;19278;-36
2023/09/23 10:20:13;;;;;;;;;13.00;9.00;;;;;24.15;47.70;100549.81;110299;1250;22878;-36
2023/09/23 10:22:39;;;;;;;;;9.00;9.00;;;;;24.14;48.03;100548.15;110278;1250;21380;-36
2023/09/23 10:25:06;;;;;;;;;9.00;9.00;;;;;24.19;47.84;100547.73;110242;1264;19344;-37
2023/09/23 10:27:33;;;;;;;;;10.00;10.00;;;;;24.18;48.00;100542.93;110291;1249;20763;-37
2023/09/23 10:29:59;;;;;;;;;10.50;10.00;;;;;24.18;47.72;100537.67;110200;1264;18488;-37
2023/09/23 10:32:26;;;;;;;;;10.00;10.00;;;;;24.21;47.81;100532.27;110254;1247;22369;-37
2023/09/23 10:34:52;;;;;;;;;10.00;9.00;;;;;24.20;47.72;100530.09;110312;1247;22264;-36
2023/09/23 10:37:18;;;;;;;;;9.00;8.00;;;;;24.18;48.10;100531.05;110160;1250;22341;-36
2023/09/23 10:39:44;;;;;;;;;9.50;9.00;;;;;24.25;47.73;100530.67;110226;1263;22410;-36
2023/09/23 10:42:10;;;;;;;;;12.33;10.33;;;;;24.20;47.93;100529.64;110188;1263;22319;-36
2023/09/23 10:44:36;;;;;;;;;11.50;11.00;;;;;24.24;47.88;100528.17;110276;1263;18606;-36
2023/09/23 10:47:02;;;;;;;;;10.00;9.00;;;;;24.21;47.89;100528.92;110272;1256;22792;-36
2023/09/23 10:49:29;;;;;;;;;10.00;10.00;;;;;24.18;48.03;100527.55;110232;1250;22990;-37
2023/09/23 10:51:55;;;;;;;;;10.33;9.67;;;;;24.18;48.02;100526.02;110175;1264;22140;-37
2023/09/23 10:54:21;;;;;;;;;11.00;11.00;;;;;24.20;47.99;100531.40;110227;1247;20558;-37
2023/09/23 10:56:47;;;;;;;;;9.33;9.00;;;;;24.24;47.64;100529.92;110245;1250;22130;-37
2023/09/23 10:59:13;;;;;;;;;10.00;10.00;;;;;24.22;47.98;100534.55;110264;1250;19901;-37
2023/09/23 11:01:39;;;;;;;;;10.00;10.00;;;;;24.25;47.70;100534.67;110218;1250;22005;-37
2023/09/23 11:04:06;;;;;;;;;10.00;9.50;;;;;24.23;47.60;100531.13;110223;1250;19833;-36
2023/09/23 11:06:33;;;;;;;;;11.00;11.00;;;;;24.24;47.92;100532.50;110248;1247;22558;-36
2023/09/23 11:08:59;;;;;;;;;13.00;12.33;;;;;24.24;47.76;100536.00;110202;1250;20750;-37
2023/09/23 11:11:25;;;;;;;;;17.00;14.50;;;;;24.26;47.81;100533.23;110193;1264;22165;-37